Time;durP1;ratioP1;P1;durP2;ratioP2;P2;SDS_P1;SDS_P2;PMS_P1;PMS_P2;Temp;Humidity;BMP_temperature;BMP_pressure;BME280_temperature;BME280_humidity;BME280_pressure;Samples;Min_cycle;Max_cycle;Signal;HPM_P1;HPM_P2
2023/11/27 00:00:53;;;;;;;9.10;4.70;;;;;;;-2.63;69.10;96921.98;107047;1259;72726;-38
2023/11/27 00:03:21;;;;;;;6.60;4.90;;;;;;;-2.67;69.15;96924.82;107046;1259;60402;-38
2023/11/27 00:05:48;;;;;;;8.10;5.20;;;;;;;-2.71;69.26;96924.83;106288;1258;1003298;-38
2023/11/27 00:08:16;;;;;;;9.20;4.50;;;;;;;-2.71;69.45;96932.39;107005;1259;73887;-38
2023/11/27 00:10:43;;;;;;;7.70;5.00;;;;;;;-2.63;69.40;96931.06;107035;1260;67769;-38
2023/11/27 00:13:11;;;;;;;6.50;4.60;;;;;;;-2.57;69.14;96926.75;107022;1259;72776;-38
2023/11/27 00:15:38;;;;;;;10.20;5.40;;;;;;;-2.59;69.15;96933.52;106172;1259;1002882;-38
2023/11/27 00:18:06;;;;;;;10.70;4.90;;;;;;;-2.62;69.24;96927.38;106162;1264;1002935;-38
2023/11/27 00:20:34;;;;;;;5.90;4.30;;;;;;;-2.63;69.25;96932.35;106983;1259;73869;-38
2023/11/27 00:23:01;;;;;;;5.80;4.60;;;;;;;-2.66;69.13;96926.42;107003;1259;66287;-37
2023/11/27 00:25:29;;;;;;;9.90;4.40;;;;;;;-2.63;68.94;96927.73;106981;1259;72666;-37
2023/11/27 00:27:56;;;;;;;6.70;4.40;;;;;;;-2.55;68.98;96919.55;107032;1259;60313;-37
2023/11/27 00:30:24;;;;;;;7.40;4.70;;;;;;;-2.52;68.95;96915.18;107051;1259;60416;-37
2023/11/27 00:32:51;;;;;;;6.60;4.70;;;;;;;-2.50;69.02;96917.41;106274;1259;1003389;-37
2023/11/27 00:35:19;;;;;;;7.90;4.60;;;;;;;-2.53;68.76;96914.77;106868;1259;67587;-37
2023/11/27 00:37:48;;;;;;;7.30;5.00;;;;;;;-2.53;68.92;96916.87;106907;1259;71410;-37
2023/11/27 00:40:15;;;;;;;7.50;4.80;;;;;;;-2.54;68.74;96916.85;106980;1259;60303;-37
2023/11/27 00:42:44;;;;;;;7.20;4.60;;;;;;;-2.56;68.49;96917.46;107043;1259;60480;-37
2023/11/27 00:45:13;;;;;;;5.70;4.20;;;;;;;-2.52;68.40;96917.44;106939;1259;74341;-37
2023/11/27 00:47:40;;;;;;;8.60;4.10;;;;;;;-2.50;68.13;96911.22;106898;1259;67545;-37
2023/11/27 00:50:09;;;;;;;8.80;4.30;;;;;;;-2.55;68.27;96908.11;107092;1259;72680;-37
2023/11/27 00:52:36;;;;;;;6.30;4.50;;;;;;;-2.59;68.27;96917.48;107016;1259;60403;-38
2023/11/27 00:55:04;;;;;;;6.10;4.60;;;;;;;-2.63;68.41;96918.65;106910;1259;60274;-37
2023/11/27 00:57:32;;;;;;;8.20;4.80;;;;;;;-2.67;68.46;96917.52;107088;1259;72596;-37
2023/11/27 00:59:59;;;;;;;12.50;4.80;;;;;;;-2.70;68.61;96919.48;107032;1259;66979;-37
2023/11/27 01:02:27;;;;;;;7.40;4.50;;;;;;;-2.66;68.51;96913.41;107055;1260;71389;-37
2023/11/27 01:04:54;;;;;;;7.20;4.40;;;;;;;-2.60;68.39;96911.98;107034;1263;60909;-37
2023/11/27 01:07:22;;;;;;;7.40;4.50;;;;;;;-2.61;68.48;96912.39;107020;1259;60408;-37
2023/11/27 01:09:51;;;;;;;6.70;4.80;;;;;;;-2.65;68.36;96922.66;106249;1259;1003455;-37
2023/11/27 01:12:18;;;;;;;6.10;4.70;;;;;;;-2.69;68.56;96926.17;106825;1259;67581;-37
2023/11/27 01:14:46;;;;;;;8.50;4.70;;;;;;;-2.72;68.67;96925.03;107044;1259;71418;-37
2023/11/27 01:17:13;;;;;;;9.50;4.60;;;;;;;-2.72;68.60;96926.10;107027;1259;61719;-37
2023/11/27 01:19:41;;;;;;;7.70;4.00;;;;;;;-2.65;68.47;96931.00;106962;1259;60286;-37
2023/11/27 01:22:09;;;;;;;6.60;4.60;;;;;;;-2.66;68.44;96929.83;106199;1259;1003715;-37
2023/11/27 01:24:36;;;;;;;10.90;4.30;;;;;;;-2.68;68.55;96928.42;106936;1260;67600;-37
2023/11/27 01:27:04;;;;;;;6.80;4.80;;;;;;;-2.71;68.43;96927.10;107019;1263;71306;-37
2023/11/27 01:29:32;;;;;;;7.20;4.90;;;;;;;-2.74;68.48;96925.88;106914;1259;60307;-37
2023/11/27 01:31:59;;;;;;;6.90;4.50;;;;;;;-2.76;68.68;96927.19;106969;1263;60094;-38
2023/11/27 01:34:27;;;;;;;9.10;4.50;;;;;;;-2.71;68.53;96930.14;107191;1261;72941;-38
2023/11/27 01:36:56;;;;;;;7.70;4.60;;;;;;;-2.67;68.38;96927.15;107093;1262;67900;-38
2023/11/27 01:39:23;;;;;;;5.90;3.80;;;;;;;-2.69;68.32;96928.08;107063;1259;72649;-39
2023/11/27 01:41:51;;;;;;;7.40;4.60;;;;;;;-2.73;68.45;96921.97;107065;1259;60458;-38
2023/11/27 01:44:18;;;;;;;6.30;4.40;;;;;;;-2.75;68.57;96923.17;107107;1259;60391;-38
2023/11/27 01:46:47;;;;;;;8.10;4.30;;;;;;;-2.79;68.63;96922.39;107094;1262;72198;-38
2023/11/27 01:49:17;;;;;;;5.70;3.90;;;;;;;-2.79;68.67;96927.46;106957;1262;67625;-38
2023/11/27 01:51:45;;;;;;;5.70;4.10;;;;;;;-2.73;68.60;96924.70;106950;1257;72497;-38
2023/11/27 01:54:15;;;;;;;5.50;3.90;;;;;;;-2.73;68.58;96917.29;106233;1260;1003010;-38
2023/11/27 01:56:44;;;;;;;7.80;4.80;;;;;;;-2.75;68.80;96918.64;107051;1260;60378;-38
2023/11/27 01:59:11;;;;;;;6.60;4.40;;;;;;;-2.76;68.84;96922.09;107012;1263;73847;-37
2023/11/27 02:01:39;;;;;;;9.30;5.10;;;;;;;-2.75;69.06;96919.16;106992;1258;67604;-38
2023/11/27 02:04:07;;;;;;;7.50;3.80;;;;;;;-2.75;69.00;96917.34;106820;1263;72493;-38
2023/11/27 02:06:34;;;;;;;9.40;4.40;;;;;;;-2.73;68.95;96913.79;107001;1262;60972;-38
2023/11/27 02:09:02;;;;;;;14.00;4.80;;;;;;;-2.69;68.95;96915.52;107009;1262;60489;-38
2023/11/27 02:11:30;;;;;;;14.20;4.70;;;;;;;-2.69;69.16;96919.05;107074;1262;72541;-38
2023/11/27 02:13:58;;;;;;;12.50;4.30;;;;;;;-2.72;68.99;96914.75;107037;1263;66359;-38
2023/11/27 02:16:25;;;;;;;12.20;4.60;;;;;;;-2.73;68.93;96917.10;107012;1258;72688;-38
2023/11/27 02:18:53;;;;;;;6.40;4.40;;;;;;;-2.76;69.19;96921.05;106990;1264;60537;-38
2023/11/27 02:21:22;;;;;;;8.60;4.10;;;;;;;-2.77;69.35;96922.77;107122;1262;60397;-37
2023/11/27 02:23:49;;;;;;;7.60;4.40;;;;;;;-2.72;69.38;96926.85;107035;1262;71676;-38
2023/11/27 02:26:17;;;;;;;7.10;4.10;;;;;;;-2.71;69.45;96927.09;106959;1259;67594;-37
2023/11/27 02:28:45;;;;;;;9.30;4.50;;;;;;;-2.76;69.39;96923.40;106969;1263;72747;-37
2023/11/27 02:31:12;;;;;;;9.40;4.30;;;;;;;-2.79;69.61;96929.27;106999;1263;60413;-37
2023/11/27 02:33:41;;;;;;;6.40;4.50;;;;;;;-2.84;69.61;96929.95;107128;1258;60335;-37
2023/11/27 02:36:09;;;;;;;7.60;4.20;;;;;;;-2.85;69.96;96925.53;107080;1262;73846;-38
2023/11/27 02:38:36;;;;;;;8.20;3.90;;;;;;;-2.79;69.68;96921.11;107104;1258;67752;-38
2023/11/27 02:41:05;;;;;;;10.90;4.40;;;;;;;-2.77;69.48;96919.12;107051;1262;72681;-38
2023/11/27 02:43:32;;;;;;;5.40;4.40;;;;;;;-2.80;69.61;96921.05;107064;1258;60319;-38
2023/11/27 02:46:00;;;;;;;9.90;4.80;;;;;;;-2.81;69.72;96926.77;107103;1257;60430;-38
2023/11/27 02:48:28;;;;;;;8.80;4.10;;;;;;;-2.85;69.73;96929.16;106405;1258;1002885;-38
2023/11/27 02:50:55;;;;;;;7.60;4.00;;;;;;;-2.86;69.74;96934.42;107073;1259;66469;-37
2023/11/27 02:53:24;;;;;;;8.40;4.60;;;;;;;-2.79;69.81;96940.48;107080;1258;71741;-37
2023/11/27 02:55:52;;;;;;;9.90;4.70;;;;;;;-2.77;69.74;96932.76;107041;1261;60425;-37
2023/11/27 02:58:20;;;;;;;6.10;4.40;;;;;;;-2.79;69.88;96937.14;107076;1257;60227;-37
2023/11/27 03:00:47;;;;;;;6.10;4.10;;;;;;;-2.81;69.90;96942.48;107060;1257;73874;-37
2023/11/27 03:03:15;;;;;;;9.00;4.30;;;;;;;-2.84;69.71;96940.02;107030;1262;67577;-38
2023/11/27 03:05:43;;;;;;;9.80;4.70;;;;;;;-2.88;69.76;96935.79;107001;1260;72664;-38
2023/11/27 03:08:11;;;;;;;7.40;3.90;;;;;;;-2.86;69.82;96937.08;107010;1260;60949;-38
2023/11/27 03:10:39;;;;;;;9.70;4.50;;;;;;;-2.84;69.78;96934.95;107076;1262;60393;-38
2023/11/27 03:13:06;;;;;;;9.70;4.10;;;;;;;-2.87;69.62;96938.02;107093;1262;73877;-38
2023/11/27 03:15:34;;;;;;;11.40;4.10;;;;;;;-2.90;69.57;96945.96;107105;1262;66303;-38
2023/11/27 03:18:03;;;;;;;6.90;4.70;;;;;;;-2.93;69.65;96941.84;107182;1263;72759;-38
2023/11/27 03:20:31;;;;;;;7.50;4.00;;;;;;;-2.97;69.64;96951.59;107231;1262;61669;-38
2023/11/27 03:22:59;;;;;;;7.80;4.20;;;;;;;-2.89;69.79;96950.09;107252;1257;60399;-38
2023/11/27 03:25:27;;;;;;;7.10;4.00;;;;;;;-2.83;69.67;96951.42;107027;1263;73847;-38
2023/11/27 03:27:54;;;;;;;8.00;4.50;;;;;;;-2.86;69.61;96958.96;107230;1263;67728;-38
2023/11/27 03:30:22;;;;;;;10.90;4.80;;;;;;;-2.88;69.74;96956.10;107233;1263;72664;-38
2023/11/27 03:32:50;;;;;;;7.30;4.10;;;;;;;-2.91;69.68;96949.86;107233;1263;60454;-38
2023/11/27 03:35:18;;;;;;;15.20;5.10;;;;;;;-2.96;69.64;96951.23;107276;1257;60383;-38
2023/11/27 03:37:45;;;;;;;10.20;4.40;;;;;;;-2.92;69.75;96959.69;107216;1257;72547;-38
2023/11/27 03:40:13;;;;;;;6.40;4.30;;;;;;;-2.84;69.74;96960.77;107250;1263;66764;-38
2023/11/27 03:42:41;;;;;;;9.80;4.70;;;;;;;-2.84;69.71;96963.73;107087;1262;71423;-38
2023/11/27 03:45:09;;;;;;;8.10;4.60;;;;;;;-2.88;69.64;96964.30;106952;1263;60326;-38
2023/11/27 03:47:37;;;;;;;7.40;4.90;;;;;;;-2.91;69.80;96972.75;107225;1256;60790;-38
2023/11/27 03:50:05;;;;;;;9.90;4.90;;;;;;;-2.94;69.78;96967.27;107221;1257;72052;-38
2023/11/27 03:52:33;;;;;;;5.60;3.50;;;;;;;-2.92;69.73;96984.08;107216;1262;67572;-38
2023/11/27 03:55:00;;;;;;;6.50;4.50;;;;;;;-2.84;69.53;96983.49;107122;1262;72671;-38
2023/11/27 03:57:28;;;;;;;6.50;4.20;;;;;;;-2.86;69.13;96982.37;107063;1263;60434;-38
2023/11/27 03:59:56;;;;;;;9.20;4.40;;;;;;;-2.89;69.24;96984.02;107125;1262;60372;-38
2023/11/27 04:02:23;;;;;;;7.30;4.80;;;;;;;-2.93;69.36;96992.38;107064;1263;72716;-38
2023/11/27 04:04:53;;;;;;;7.80;4.50;;;;;;;-2.97;69.58;96993.05;107213;1257;67481;-38
2023/11/27 04:07:20;;;;;;;5.80;4.20;;;;;;;-2.96;69.47;96994.14;107242;1260;72037;-38
2023/11/27 04:09:48;;;;;;;6.30;4.50;;;;;;;-2.91;69.44;96991.76;107203;1257;60425;-38
2023/11/27 04:12:16;;;;;;;6.00;4.10;;;;;;;-2.93;69.39;97001.68;107213;1258;60514;-38
2023/11/27 04:14:43;;;;;;;8.40;4.70;;;;;;;-2.97;69.45;97002.02;107216;1263;72564;-37
2023/11/27 04:17:11;;;;;;;8.40;5.50;;;;;;;-3.01;69.48;97005.45;107272;1257;66400;-38
2023/11/27 04:19:39;;;;;;;6.50;4.80;;;;;;;-3.05;69.59;97010.76;107193;1257;72684;-38
2023/11/27 04:22:07;;;;;;;6.90;4.50;;;;;;;-3.03;69.37;97006.88;107207;1259;60481;-38
2023/11/27 04:24:35;;;;;;;8.00;4.70;;;;;;;-2.98;69.30;97000.84;107230;1263;60864;-38
2023/11/27 04:27:04;;;;;;;5.70;4.60;;;;;;;-2.99;69.38;97014.20;106513;1257;1002878;-38
2023/11/27 04:29:32;;;;;;;8.30;5.00;;;;;;;-3.03;69.61;97018.02;107291;1263;67576;-38
2023/11/27 04:32:00;;;;;;;6.90;4.70;;;;;;;-3.09;69.59;97010.11;107044;1257;72507;-39
2023/11/27 04:34:28;;;;;;;7.90;4.90;;;;;;;-3.13;69.83;97015.89;107257;1262;60412;-38
2023/11/27 04:36:55;;;;;;;9.90;5.40;;;;;;;-3.08;69.83;97014.45;107257;1256;60303;-38
2023/11/27 04:39:23;;;;;;;7.70;4.80;;;;;;;-3.01;69.84;97020.50;107120;1259;73831;-38
2023/11/27 04:41:51;;;;;;;7.40;5.10;;;;;;;-3.01;69.71;97020.27;107116;1257;68093;-38
2023/11/27 04:44:23;;;;;;;8.70;4.90;;;;;;;-3.05;69.83;97022.64;107126;1261;72674;-38
2023/11/27 04:46:52;;;;;;;9.70;5.00;;;;;;;-3.12;69.73;97020.16;107094;1263;60165;-39
2023/11/27 04:49:20;;;;;;;11.70;5.40;;;;;;;-3.15;69.83;97021.39;107138;1260;59230;-38
2023/11/27 04:51:47;;;;;;;6.00;4.90;;;;;;;-3.09;69.91;97017.07;107114;1257;74255;-38
2023/11/27 04:54:15;;;;;;;6.40;5.00;;;;;;;-3.03;69.70;97028.83;107226;1258;67623;-38
2023/11/27 04:56:43;;;;;;;7.10;5.20;;;;;;;-3.06;69.59;97024.00;107205;1263;72680;-38
2023/11/27 04:59:10;;;;;;;7.90;5.50;;;;;;;-3.08;69.89;97022.04;107091;1258;60419;-38
2023/11/27 05:01:40;;;;;;;7.40;4.70;;;;;;;-3.10;69.91;97027.95;107124;1257;60402;-38
2023/11/27 05:04:07;;;;;;;8.70;5.10;;;;;;;-3.12;69.96;97024.92;107101;1261;73959;-38
2023/11/27 05:06:35;;;;;;;7.00;4.80;;;;;;;-3.10;69.76;97016.95;107121;1258;66281;-38
2023/11/27 05:09:03;;;;;;;7.40;4.40;;;;;;;-3.06;69.55;97026.86;107212;1257;71380;-39
2023/11/27 05:11:31;;;;;;;7.10;4.90;;;;;;;-3.09;69.64;97026.83;107050;1258;60432;-38
2023/11/27 05:13:58;;;;;;;7.90;5.10;;;;;;;-3.12;69.86;97030.76;107219;1257;60319;-38
2023/11/27 05:16:26;;;;;;;6.70;4.70;;;;;;;-3.14;69.94;97036.58;107211;1257;73847;-38
2023/11/27 05:18:54;;;;;;;12.20;5.10;;;;;;;-3.16;70.00;97034.32;107132;1262;67585;-38
2023/11/27 05:21:21;;;;;;;9.40;5.40;;;;;;;-3.10;70.02;97040.95;106399;1257;1003090;-38
2023/11/27 05:23:49;;;;;;;10.30;4.80;;;;;;;-3.06;69.72;97054.13;107059;1263;176656;-36
2023/11/27 05:28:56;;;;;;;8.30;5.40;;;;;;;-3.11;69.80;97058.48;104372;1289;601264;-38
2023/11/27 05:31:23;;;;;;;8.00;5.10;;;;;;;-3.15;69.86;97065.09;106800;1267;59264;-38
2023/11/27 05:33:51;;;;;;;8.70;4.90;;;;;;;-3.15;70.04;97065.63;106751;1263;59269;-37
2023/11/27 05:36:19;;;;;;;7.20;4.90;;;;;;;-3.09;69.87;97062.12;106750;1269;71042;-36
2023/11/27 05:38:46;;;;;;;6.90;5.00;;;;;;;-3.03;69.77;97062.10;106791;1267;66285;-38
2023/11/27 05:41:15;;;;;;;7.00;4.70;;;;;;;-3.03;69.50;97070.02;105991;1267;1002962;-38
2023/11/27 05:43:43;;;;;;;7.20;4.80;;;;;;;-3.04;69.57;97065.37;106723;1264;196554;-37
2023/11/27 05:46:10;;;;;;;9.40;5.20;;;;;;;-3.05;69.42;97070.89;106863;1267;60024;-38
2023/11/27 05:48:38;;;;;;;6.90;5.10;;;;;;;-3.07;69.35;97068.62;106861;1263;72330;-37
2023/11/27 05:51:06;;;;;;;7.10;4.60;;;;;;;-3.02;69.35;97070.81;106802;1263;67904;-37
2023/11/27 05:53:34;;;;;;;9.20;5.20;;;;;;;-2.95;69.21;97077.50;106837;1263;72708;-38
2023/11/27 05:56:02;;;;;;;7.30;4.90;;;;;;;-2.95;69.10;97076.44;106754;1264;59642;-38
2023/11/27 05:58:29;;;;;;;11.90;5.10;;;;;;;-3.00;68.94;97070.42;106811;1267;59799;-38
2023/11/27 06:00:57;;;;;;;6.80;5.10;;;;;;;-3.04;69.11;97069.92;106831;1263;73032;-38
2023/11/27 06:03:24;;;;;;;7.50;5.10;;;;;;;-3.05;69.23;97075.11;106775;1264;67729;-37
2023/11/27 06:05:52;;;;;;;6.40;4.60;;;;;;;-3.01;69.26;97078.23;106728;1264;73152;-38
2023/11/27 06:08:20;;;;;;;6.60;4.90;;;;;;;-2.91;69.26;97083.15;106812;1264;59626;-38
2023/11/27 06:10:47;;;;;;;8.50;5.10;;;;;;;-2.92;68.93;97083.23;106739;1263;60051;-37
2023/11/27 06:13:15;;;;;;;8.00;5.10;;;;;;;-2.94;68.84;97093.76;106840;1267;73524;-38
2023/11/27 06:15:46;;;;;;;8.20;5.50;;;;;;;-2.98;69.06;97095.48;106076;1264;1002908;-38
2023/11/27 06:18:14;;;;;;;7.20;5.10;;;;;;;-2.99;69.18;97102.57;106855;1264;71462;-38
2023/11/27 06:20:42;;;;;;;6.70;4.70;;;;;;;-2.98;69.14;97105.65;106793;1263;61668;-38
2023/11/27 06:23:10;;;;;;;7.90;5.30;;;;;;;-2.91;69.00;97098.02;106763;1263;60012;-37
2023/11/27 06:25:37;;;;;;;7.30;5.50;;;;;;;-2.86;68.68;97094.62;106748;1264;73510;-38
2023/11/27 06:28:05;;;;;;;11.20;5.70;;;;;;;-2.88;68.77;97094.72;106822;1263;67586;-38
2023/11/27 06:30:34;;;;;;;8.10;5.40;;;;;;;-2.92;68.86;97093.45;106823;1264;72703;-38
2023/11/27 06:33:01;;;;;;;9.90;5.10;;;;;;;-2.90;68.97;97106.38;106901;1264;59596;-38
2023/11/27 06:35:29;;;;;;;6.30;5.00;;;;;;;-2.94;68.74;97107.70;106812;1263;61399;-38
2023/11/27 06:37:56;;;;;;;7.30;5.10;;;;;;;-2.93;68.81;97104.60;106840;1264;73136;-38
2023/11/27 06:40:24;;;;;;;8.40;5.40;;;;;;;-2.90;68.70;97112.30;106827;1264;67640;-38
2023/11/27 06:43:10;;;;;;;8.10;5.20;;;;;;;-2.92;68.56;97110.86;106736;1264;72699;-37
2023/11/27 06:45:38;;;;;;;8.90;5.20;;;;;;;-2.95;68.67;97110.69;106755;1264;59654;-38
2023/11/27 06:48:06;;;;;;;9.10;5.50;;;;;;;-2.98;68.47;97106.79;106782;1264;59488;-37
2023/11/27 06:50:33;;;;;;;8.40;5.40;;;;;;;-3.00;68.59;97108.91;106758;1263;73076;-37
2023/11/27 06:53:02;;;;;;;10.20;5.50;;;;;;;-2.97;68.53;97108.11;106750;1263;67652;-38
2023/11/27 06:55:30;;;;;;;9.70;5.40;;;;;;;-2.93;68.17;97112.27;106806;1264;72552;-38
2023/11/27 06:57:57;;;;;;;10.40;5.40;;;;;;;-2.97;68.08;97100.77;106076;1264;1003851;-38
2023/11/27 07:00:26;;;;;;;11.20;5.70;;;;;;;-3.00;68.06;97114.36;106798;1263;60186;-38
2023/11/27 07:02:54;;;;;;;7.70;5.50;;;;;;;-3.05;68.14;97121.17;106078;1263;1003658;-38
2023/11/27 07:05:21;;;;;;;10.90;5.70;;;;;;;-3.08;68.33;97124.71;106833;1264;67620;-38
2023/11/27 07:07:49;;;;;;;7.30;5.30;;;;;;;-3.03;68.37;97127.52;106796;1264;72733;-38
2023/11/27 07:10:17;;;;;;;11.90;5.20;;;;;;;-2.97;68.05;97131.36;106812;1263;59573;-38
2023/11/27 07:12:44;;;;;;;12.30;5.70;;;;;;;-2.97;67.86;97128.25;106100;1263;1003081;-38
2023/11/27 07:15:12;;;;;;;11.50;5.60;;;;;;;-2.98;67.92;97136.27;106830;1264;73140;-38
2023/11/27 07:17:40;;;;;;;10.00;6.00;;;;;;;-3.04;67.56;97128.24;106076;1263;1003453;-38
2023/11/27 07:20:17;;;;;;;10.80;5.80;;;;;;;-3.06;67.64;97139.83;106822;1264;72626;-38
2023/11/27 07:22:45;;;;;;;8.80;5.10;;;;;;;-3.08;67.84;97131.98;106811;1267;61665;-38
2023/11/27 07:25:16;;;;;;;9.20;5.20;;;;;;;-3.01;67.79;97139.63;106924;1263;59683;-38
2023/11/27 07:27:45;;;;;;;7.60;5.20;;;;;;;-2.99;67.66;97145.61;106713;1268;71809;-38
2023/11/27 07:30:13;;;;;;;8.00;5.40;;;;;;;-2.98;67.65;97143.13;105984;1264;1003689;-38
2023/11/27 07:32:41;;;;;;;8.70;5.40;;;;;;;-3.01;67.21;97137.44;106758;1263;71741;-38
2023/11/27 07:35:12;;;;;;;8.40;5.50;;;;;;;-3.06;67.12;97135.00;106759;1263;60205;-38
2023/11/27 07:37:39;;;;;;;10.00;5.30;;;;;;;-3.10;67.15;97130.91;106845;1263;59260;-38
2023/11/27 07:40:10;;;;;;;8.30;5.10;;;;;;;-3.09;66.96;97133.61;106715;1263;73067;-38
2023/11/27 07:42:39;;;;;;;8.50;5.80;;;;;;;-3.05;67.04;97132.67;106869;1268;66502;-38
2023/11/27 07:45:08;;;;;;;7.50;4.90;;;;;;;-3.03;67.20;97141.58;106773;1264;71402;-38
2023/11/27 07:47:36;;;;;;;9.10;4.40;;;;;;;-3.05;66.94;97135.86;106872;1268;59605;-37
2023/11/27 07:50:06;;;;;;;11.40;5.60;;;;;;;-3.04;66.79;97140.77;106767;1263;59842;-38
2023/11/27 07:52:34;;;;;;;11.10;5.50;;;;;;;-3.03;66.97;97143.27;106779;1263;73134;-38
2023/11/27 07:55:04;;;;;;;10.20;5.20;;;;;;;-2.97;66.79;97150.08;106632;1271;66583;-38
2023/11/27 07:57:33;;;;;;;10.70;5.10;;;;;;;-2.86;66.17;97157.36;106775;1263;71908;-38
2023/11/27 08:00:02;;;;;;;9.60;5.40;;;;;;;-2.81;66.03;97156.39;106866;1263;59512;-38
2023/11/27 08:02:39;;;;;;;11.70;6.20;;;;;;;-2.82;65.66;97161.67;106794;1263;59583;-38
2023/11/27 08:05:08;;;;;;;12.40;5.40;;;;;;;-2.84;65.86;97160.98;107224;1256;73194;-38
2023/11/27 08:07:37;;;;;;;8.20;5.60;;;;;;;-2.84;65.63;97169.77;107216;1257;68142;-38
2023/11/27 08:10:08;;;;;;;11.10;5.10;;;;;;;-2.88;65.58;97165.30;107186;1257;73114;-38
2023/11/27 08:12:38;;;;;;;8.10;4.90;;;;;;;-2.89;65.93;97168.62;107263;1256;61818;-38
2023/11/27 08:15:07;;;;;;;10.50;5.30;;;;;;;-2.82;65.47;97166.20;107181;1257;59621;-38
2023/11/27 08:17:34;;;;;;;14.80;5.20;;;;;;;-2.82;65.56;97177.05;107047;1256;71820;-38
2023/11/27 08:20:05;;;;;;;9.80;5.80;;;;;;;-2.82;65.49;97185.85;107096;1256;67888;-38
2023/11/27 08:22:33;;;;;;;9.20;5.40;;;;;;;-2.80;65.59;97190.00;107136;1257;72677;-37
2023/11/27 08:25:00;;;;;;;13.10;5.50;;;;;;;-2.78;65.13;97191.42;107120;1256;60058;-37
2023/11/27 08:27:28;;;;;;;13.50;5.60;;;;;;;-2.80;65.07;97181.42;107088;1257;60054;-37
2023/11/27 08:29:56;;;;;;;12.30;5.10;;;;;;;-2.81;65.16;97185.63;106405;1258;1003305;-37
2023/11/27 08:32:25;;;;;;;12.60;5.20;;;;;;;-2.77;65.04;97191.39;107243;1256;67567;-37
2023/11/27 08:34:54;;;;;;;11.90;5.30;;;;;;;-2.73;64.76;97192.29;107004;1257;72769;-37
2023/11/27 08:37:22;;;;;;;9.70;5.70;;;;;;;-2.74;64.74;97195.44;107186;1256;59701;-37
2023/11/27 08:39:50;;;;;;;11.40;5.50;;;;;;;-2.77;64.79;97187.96;107263;1262;60034;-37
2023/11/27 08:42:17;;;;;;;8.70;5.40;;;;;;;-2.82;64.76;97192.20;107238;1256;73034;-37
2023/11/27 08:44:45;;;;;;;11.50;5.40;;;;;;;-2.87;64.77;97187.84;107237;1256;69724;-38
2023/11/27 08:47:13;;;;;;;12.80;5.70;;;;;;;-2.94;64.79;97196.36;107219;1256;73038;-38
2023/11/27 08:49:40;;;;;;;11.20;5.40;;;;;;;-2.96;65.18;97201.54;107209;1257;61661;-37
2023/11/27 08:52:08;;;;;;;17.30;5.10;;;;;;;-2.91;65.02;97192.15;107229;1258;60068;-38
2023/11/27 08:54:36;;;;;;;14.50;4.90;;;;;;;-2.89;64.66;97212.92;107243;1256;71106;-38
2023/11/27 08:57:05;;;;;;;11.90;4.80;;;;;;;-2.95;64.59;97209.98;107217;1258;66984;-38
2023/11/27 08:59:32;;;;;;;10.80;5.30;;;;;;;-2.99;64.89;97211.95;106491;1257;1003502;-38
2023/11/27 09:02:00;;;;;;;17.20;5.30;;;;;;;-3.00;64.85;97203.80;107221;1256;60080;-37
2023/11/27 09:04:27;;;;;;;12.40;4.90;;;;;;;-3.02;64.94;97209.71;107227;1256;59986;-37
2023/11/27 09:06:55;;;;;;;15.10;5.40;;;;;;;-3.05;64.82;97206.36;107217;1256;73055;-38
2023/11/27 09:09:23;;;;;;;12.10;4.40;;;;;;;-3.06;64.80;97211.23;107207;1256;66845;-38
2023/11/27 09:11:51;;;;;;;7.40;5.00;;;;;;;-3.00;64.77;97212.88;107185;1257;71808;-38
2023/11/27 09:14:19;;;;;;;7.00;5.10;;;;;;;-2.97;64.71;97206.17;107254;1256;59484;-38
2023/11/27 09:16:46;;;;;;;15.00;4.70;;;;;;;-2.99;64.57;97211.57;107286;1256;60027;-38
2023/11/27 09:19:14;;;;;;;8.30;4.30;;;;;;;-3.00;64.54;97218.80;107159;1258;73041;-38
2023/11/27 09:21:43;;;;;;;8.10;5.00;;;;;;;-3.04;64.25;97218.14;107116;1257;66262;-39
2023/11/27 09:24:10;;;;;;;12.90;5.20;;;;;;;-3.05;64.62;97222.41;107149;1260;72714;-38
2023/11/27 09:26:38;;;;;;;8.10;4.70;;;;;;;-3.07;64.68;97223.02;107160;1257;60450;-39
2023/11/27 09:29:05;;;;;;;8.00;4.90;;;;;;;-3.05;64.57;97213.71;107186;1256;60006;-38
2023/11/27 09:31:33;;;;;;;7.70;4.70;;;;;;;-2.99;64.50;97218.55;107227;1256;73116;-38
2023/11/27 09:34:01;;;;;;;8.50;4.90;;;;;;;-2.98;64.36;97218.50;107248;1257;67914;-39
2023/11/27 09:36:30;;;;;;;8.20;4.60;;;;;;;-3.00;64.15;97209.85;107208;1257;71511;-38
2023/11/27 09:38:59;;;;;;;8.60;4.80;;;;;;;-3.01;64.35;97211.80;107286;1256;60443;-38
2023/11/27 09:41:26;;;;;;;13.40;4.90;;;;;;;-3.04;64.29;97216.73;107325;1256;60394;-38
2023/11/27 09:43:56;;;;;;;7.90;5.00;;;;;;;-3.04;64.36;97223.59;106496;1256;1002886;-38
2023/11/27 09:46:24;;;;;;;6.60;4.90;;;;;;;-3.06;64.36;97215.78;107524;1252;67984;-38
2023/11/27 09:48:52;;;;;;;11.90;4.50;;;;;;;-3.00;64.30;97224.10;107473;1253;72696;-38
2023/11/27 09:51:19;;;;;;;12.40;4.80;;;;;;;-2.94;63.78;97222.36;107465;1254;60394;-38
2023/11/27 09:53:49;;;;;;;13.10;5.10;;;;;;;-2.93;63.48;97229.52;107484;1253;60307;-38
2023/11/27 09:56:18;;;;;;;11.20;4.40;;;;;;;-2.91;63.54;97234.20;107527;1253;73876;-38
2023/11/27 09:58:46;;;;;;;8.20;4.90;;;;;;;-2.88;63.64;97233.09;107472;1252;67624;-38
2023/11/27 10:01:14;;;;;;;7.90;4.70;;;;;;;-2.84;63.40;97242.10;107392;1253;71065;-38
2023/11/27 10:03:42;;;;;;;7.30;4.50;;;;;;;-2.85;63.09;97233.30;107472;1253;60294;-38
2023/11/27 10:06:11;;;;;;;7.80;4.90;;;;;;;-2.85;63.03;97236.77;107518;1252;60386;-38
2023/11/27 10:08:40;;;;;;;14.10;5.10;;;;;;;-2.84;63.19;97223.66;107502;1254;72862;-38
2023/11/27 10:11:07;;;;;;;10.40;4.90;;;;;;;-2.77;62.72;97225.94;107461;1253;70258;-38
2023/11/27 10:13:35;;;;;;;10.60;4.60;;;;;;;-2.65;62.56;97221.81;107484;1253;71433;-38
2023/11/27 10:16:22;;;;;;;13.40;5.60;;;;;;;-2.58;62.31;97227.97;106749;1253;1005244;-38
2023/11/27 10:18:51;;;;;;;8.30;5.20;;;;;;;-2.54;62.01;97227.13;107508;1253;59314;-38
2023/11/27 10:21:21;;;;;;;16.90;5.10;;;;;;;-2.54;61.83;97224.39;106735;1252;1003164;-38
2023/11/27 10:23:50;;;;;;;9.20;4.40;;;;;;;-2.53;61.43;97233.52;106740;1253;1002962;-38
2023/11/27 10:26:21;;;;;;;14.80;4.60;;;;;;;-2.54;61.36;97244.94;107490;1257;71962;-38
2023/11/27 10:28:50;;;;;;;10.10;4.90;;;;;;;-2.54;61.21;97239.58;107510;1253;60481;-37
2023/11/27 10:31:19;;;;;;;9.60;4.90;;;;;;;-2.52;61.39;97239.87;107521;1253;60124;-37
2023/11/27 10:33:46;;;;;;;13.10;4.80;;;;;;;-2.50;61.11;97240.59;107533;1253;73037;-37
2023/11/27 10:36:17;;;;;;;9.10;5.00;;;;;;;-2.46;61.12;97249.09;107487;1257;66808;-37
2023/11/27 10:38:45;;;;;;;9.30;4.80;;;;;;;-2.41;60.90;97252.23;107498;1253;72825;-37
2023/11/27 10:41:14;;;;;;;9.00;4.80;;;;;;;-2.36;60.91;97250.42;107475;1254;60395;-36
2023/11/27 10:43:41;;;;;;;12.50;4.10;;;;;;;-2.31;60.48;97265.09;106577;1253;1003027;-38
2023/11/27 10:46:09;;;;;;;7.40;4.20;;;;;;;-2.26;59.86;97264.20;106786;1252;1003245;-38
2023/11/27 10:48:38;;;;;;;8.80;5.10;;;;;;;-2.21;59.98;97269.14;107472;1256;66758;-38
2023/11/27 10:51:13;;;;;;;8.00;5.00;;;;;;;-2.17;59.86;97262.93;107478;1253;71532;-38
2023/11/27 10:53:43;;;;;;;16.40;5.40;;;;;;;-2.08;59.57;97261.98;107500;1253;60429;-38
2023/11/27 10:56:11;;;;;;;8.30;4.70;;;;;;;-1.92;59.05;97263.06;107483;1252;59408;-38
2023/11/27 10:58:39;;;;;;;7.20;4.50;;;;;;;-1.77;58.27;97263.56;107235;1253;73867;-38
2023/11/27 11:01:08;;;;;;;10.20;4.70;;;;;;;-1.66;57.89;97262.41;107420;1253;66639;-38
2023/11/27 11:03:37;;;;;;;7.30;4.50;;;;;;;-1.56;57.50;97265.23;107373;1253;71486;-38
2023/11/27 11:06:06;;;;;;;10.80;4.20;;;;;;;-1.49;57.45;97265.02;107287;1253;60549;-38
2023/11/27 11:08:34;;;;;;;10.00;4.50;;;;;;;-1.43;57.27;97272.42;107501;1253;60532;-38
2023/11/27 11:11:06;;;;;;;11.20;5.10;;;;;;;-1.35;56.82;97272.74;107507;1253;73420;-38
2023/11/27 11:13:34;;;;;;;9.00;4.80;;;;;;;-1.26;56.33;97278.65;106745;1253;1003919;-38
2023/11/27 11:16:33;;;;;;;8.10;4.50;;;;;;;-1.14;56.24;97284.71;107445;1252;72715;-38
2023/11/27 11:19:16;;;;;;;15.70;5.10;;;;;;;-0.98;55.48;97286.35;107443;1253;62281;-38
2023/11/27 11:21:44;;;;;;;18.50;5.10;;;;;;;-0.78;55.40;97285.70;107556;1253;61538;-38
2023/11/27 11:24:15;;;;;;;15.50;5.60;;;;;;;-0.61;54.54;97287.13;106752;1252;1003012;-37
2023/11/27 11:26:51;;;;;;;11.10;4.60;;;;;;;-0.49;53.59;97287.03;106765;1253;1003849;-38
2023/11/27 11:29:23;;;;;;;14.00;4.80;;;;;;;-0.42;53.56;97293.58;107511;1253;73032;-38